sensor_id;sensor_type;location;lat;lon;timestamp;P1;durP1;ratioP1;P2;durP2;ratioP2
49544;SDS011;74870;42.636;23.302;2024-03-29T00:02:02;4.47;;;2.50;;
49544;SDS011;74870;42.636;23.302;2024-03-29T00:04:27;4.20;;;2.60;;
49544;SDS011;74870;42.636;23.302;2024-03-29T00:06:53;4.87;;;2.60;;
49544;SDS011;74870;42.636;23.302;2024-03-29T00:09:19;3.80;;;2.23;;
49544;SDS011;74870;42.636;23.302;2024-03-29T00:11:44;5.37;;;2.70;;
49544;SDS011;74870;42.636;23.302;2024-03-29T00:14:10;6.37;;;2.57;;
49544;SDS011;74870;42.636;23.302;2024-03-29T00:16:35;5.33;;;2.63;;
49544;SDS011;74870;42.636;23.302;2024-03-29T00:19:01;3.83;;;2.30;;
49544;SDS011;74870;42.636;23.302;2024-03-29T00:21:26;4.60;;;2.13;;
49544;SDS011;74870;42.636;23.302;2024-03-29T00:23:51;5.00;;;2.23;;
49544;SDS011;74870;42.636;23.302;2024-03-29T00:26:17;4.23;;;2.10;;
49544;SDS011;74870;42.636;23.302;2024-03-29T00:28:42;2.93;;;1.93;;
49544;SDS011;74870;42.636;23.302;2024-03-29T00:31:08;6.47;;;2.90;;
49544;SDS011;74870;42.636;23.302;2024-03-29T00:33:33;4.87;;;2.47;;
49544;SDS011;74870;42.636;23.302;2024-03-29T00:36:00;5.20;;;2.57;;
49544;SDS011;74870;42.636;23.302;2024-03-29T00:38:25;5.07;;;2.23;;
49544;SDS011;74870;42.636;23.302;2024-03-29T00:40:50;3.77;;;2.00;;
49544;SDS011;74870;42.636;23.302;2024-03-29T00:43:16;2.67;;;1.90;;
49544;SDS011;74870;42.636;23.302;2024-03-29T00:45:41;2.57;;;1.80;;
49544;SDS011;74870;42.636;23.302;2024-03-29T00:48:07;3.23;;;1.80;;
49544;SDS011;74870;42.636;23.302;2024-03-29T00:50:33;3.20;;;2.40;;
49544;SDS011;74870;42.636;23.302;2024-03-29T00:52:59;4.30;;;2.40;;
49544;SDS011;74870;42.636;23.302;2024-03-29T00:55:24;3.93;;;2.07;;
49544;SDS011;74870;42.636;23.302;2024-03-29T00:57:49;3.73;;;2.00;;
49544;SDS011;74870;42.636;23.302;2024-03-29T01:00:15;4.40;;;2.17;;
49544;SDS011;74870;42.636;23.302;2024-03-29T01:02:40;2.83;;;1.70;;
49544;SDS011;74870;42.636;23.302;2024-03-29T01:05:06;2.67;;;1.80;;
49544;SDS011;74870;42.636;23.302;2024-03-29T01:07:32;1.67;;;1.53;;
49544;SDS011;74870;42.636;23.302;2024-03-29T01:09:57;2.47;;;1.47;;
49544;SDS011;74870;42.636;23.302;2024-03-29T01:12:23;3.57;;;1.37;;
49544;SDS011;74870;42.636;23.302;2024-03-29T01:14:48;5.00;;;1.67;;
49544;SDS011;74870;42.636;23.302;2024-03-29T01:17:14;2.77;;;1.50;;
49544;SDS011;74870;42.636;23.302;2024-03-29T01:19:39;3.07;;;1.47;;
49544;SDS011;74870;42.636;23.302;2024-03-29T01:22:04;4.20;;;1.20;;
49544;SDS011;74870;42.636;23.302;2024-03-29T01:24:30;2.30;;;1.50;;
49544;SDS011;74870;42.636;23.302;2024-03-29T01:26:55;2.13;;;1.20;;
49544;SDS011;74870;42.636;23.302;2024-03-29T01:29:21;2.97;;;1.60;;
49544;SDS011;74870;42.636;23.302;2024-03-29T01:31:46;1.87;;;1.30;;
49544;SDS011;74870;42.636;23.302;2024-03-29T01:34:11;2.03;;;1.20;;
49544;SDS011;74870;42.636;23.302;2024-03-29T01:36:37;2.13;;;1.40;;
49544;SDS011;74870;42.636;23.302;2024-03-29T01:39:02;2.43;;;1.67;;
49544;SDS011;74870;42.636;23.302;2024-03-29T01:41:29;3.17;;;1.67;;
49544;SDS011;74870;42.636;23.302;2024-03-29T01:43:54;5.27;;;1.70;;
49544;SDS011;74870;42.636;23.302;2024-03-29T01:46:20;4.17;;;1.60;;
49544;SDS011;74870;42.636;23.302;2024-03-29T01:48:51;2.27;;;1.50;;
49544;SDS011;74870;42.636;23.302;2024-03-29T01:51:18;3.60;;;1.60;;
49544;SDS011;74870;42.636;23.302;2024-03-29T01:53:46;1.90;;;1.53;;
49544;SDS011;74870;42.636;23.302;2024-03-29T01:56:12;2.00;;;1.67;;
49544;SDS011;74870;42.636;23.302;2024-03-29T01:58:39;3.30;;;1.70;;
49544;SDS011;74870;42.636;23.302;2024-03-29T02:01:05;4.83;;;1.80;;
49544;SDS011;74870;42.636;23.302;2024-03-29T02:03:32;4.10;;;1.40;;
49544;SDS011;74870;42.636;23.302;2024-03-29T02:05:57;4.70;;;1.50;;
49544;SDS011;74870;42.636;23.302;2024-03-29T02:08:24;1.50;;;1.30;;
49544;SDS011;74870;42.636;23.302;2024-03-29T02:10:50;2.37;;;1.10;;
49544;SDS011;74870;42.636;23.302;2024-03-29T02:13:16;2.57;;;1.40;;
49544;SDS011;74870;42.636;23.302;2024-03-29T02:15:42;2.40;;;0.87;;
49544;SDS011;74870;42.636;23.302;2024-03-29T02:18:07;2.00;;;1.00;;
49544;SDS011;74870;42.636;23.302;2024-03-29T02:20:33;3.67;;;1.10;;
49544;SDS011;74870;42.636;23.302;2024-03-29T02:25:36;1.37;;;0.90;;
49544;SDS011;74870;42.636;23.302;2024-03-29T02:28:03;2.57;;;1.37;;
49544;SDS011;74870;42.636;23.302;2024-03-29T02:30:29;2.03;;;1.23;;
49544;SDS011;74870;42.636;23.302;2024-03-29T02:32:58;4.10;;;1.03;;
49544;SDS011;74870;42.636;23.302;2024-03-29T02:35:24;2.57;;;1.20;;
49544;SDS011;74870;42.636;23.302;2024-03-29T02:37:50;3.40;;;1.17;;
49544;SDS011;74870;42.636;23.302;2024-03-29T02:40:15;2.83;;;2.00;;
49544;SDS011;74870;42.636;23.302;2024-03-29T02:42:41;5.60;;;2.17;;
49544;SDS011;74870;42.636;23.302;2024-03-29T02:45:06;3.57;;;2.00;;
49544;SDS011;74870;42.636;23.302;2024-03-29T02:47:32;2.60;;;1.67;;
49544;SDS011;74870;42.636;23.302;2024-03-29T02:49:58;1.40;;;1.30;;
49544;SDS011;74870;42.636;23.302;2024-03-29T02:52:23;2.17;;;1.30;;
49544;SDS011;74870;42.636;23.302;2024-03-29T02:54:49;3.20;;;1.30;;
49544;SDS011;74870;42.636;23.302;2024-03-29T02:57:14;2.53;;;1.30;;
49544;SDS011;74870;42.636;23.302;2024-03-29T02:59:40;3.03;;;1.20;;
49544;SDS011;74870;42.636;23.302;2024-03-29T03:02:06;3.03;;;1.30;;
49544;SDS011;74870;42.636;23.302;2024-03-29T03:04:31;1.67;;;1.30;;
49544;SDS011;74870;42.636;23.302;2024-03-29T03:06:56;1.53;;;1.30;;
49544;SDS011;74870;42.636;23.302;2024-03-29T03:09:42;2.43;;;1.10;;
49544;SDS011;74870;42.636;23.302;2024-03-29T03:12:25;4.70;;;1.23;;
49544;SDS011;74870;42.636;23.302;2024-03-29T03:14:51;2.23;;;1.23;;
49544;SDS011;74870;42.636;23.302;2024-03-29T03:17:16;1.40;;;1.30;;
49544;SDS011;74870;42.636;23.302;2024-03-29T03:19:41;2.27;;;1.03;;
49544;SDS011;74870;42.636;23.302;2024-03-29T03:22:07;2.90;;;2.00;;
49544;SDS011;74870;42.636;23.302;2024-03-29T03:24:32;3.33;;;2.60;;
49544;SDS011;74870;42.636;23.302;2024-03-29T03:26:58;6.20;;;2.90;;
49544;SDS011;74870;42.636;23.302;2024-03-29T03:29:23;3.80;;;2.60;;
49544;SDS011;74870;42.636;23.302;2024-03-29T03:31:48;3.27;;;2.43;;
49544;SDS011;74870;42.636;23.302;2024-03-29T03:34:14;3.73;;;1.90;;
49544;SDS011;74870;42.636;23.302;2024-03-29T03:36:39;3.70;;;1.93;;
49544;SDS011;74870;42.636;23.302;2024-03-29T03:39:04;3.63;;;1.90;;
49544;SDS011;74870;42.636;23.302;2024-03-29T03:41:30;3.33;;;2.10;;
49544;SDS011;74870;42.636;23.302;2024-03-29T03:43:55;2.80;;;1.90;;
49544;SDS011;74870;42.636;23.302;2024-03-29T03:46:20;4.33;;;2.30;;
49544;SDS011;74870;42.636;23.302;2024-03-29T03:48:46;5.17;;;2.10;;
49544;SDS011;74870;42.636;23.302;2024-03-29T03:51:11;3.77;;;1.90;;
49544;SDS011;74870;42.636;23.302;2024-03-29T03:53:37;2.67;;;1.20;;
49544;SDS011;74870;42.636;23.302;2024-03-29T03:56:02;3.30;;;1.80;;
49544;SDS011;74870;42.636;23.302;2024-03-29T03:58:28;2.73;;;1.50;;
49544;SDS011;74870;42.636;23.302;2024-03-29T04:00:53;2.73;;;1.77;;
49544;SDS011;74870;42.636;23.302;2024-03-29T04:03:19;4.40;;;2.10;;
49544;SDS011;74870;42.636;23.302;2024-03-29T04:05:44;4.40;;;1.77;;
49544;SDS011;74870;42.636;23.302;2024-03-29T04:08:09;4.07;;;1.80;;
49544;SDS011;74870;42.636;23.302;2024-03-29T04:10:38;3.53;;;1.63;;
49544;SDS011;74870;42.636;23.302;2024-03-29T04:13:03;6.27;;;1.90;;
49544;SDS011;74870;42.636;23.302;2024-03-29T04:15:29;5.97;;;1.93;;
49544;SDS011;74870;42.636;23.302;2024-03-29T04:17:56;2.77;;;1.53;;
49544;SDS011;74870;42.636;23.302;2024-03-29T04:20:21;2.50;;;1.43;;
49544;SDS011;74870;42.636;23.302;2024-03-29T04:22:46;3.10;;;1.20;;
49544;SDS011;74870;42.636;23.302;2024-03-29T04:25:12;2.23;;;0.90;;
49544;SDS011;74870;42.636;23.302;2024-03-29T04:27:39;1.77;;;0.80;;
49544;SDS011;74870;42.636;23.302;2024-03-29T04:30:05;2.77;;;1.23;;
49544;SDS011;74870;42.636;23.302;2024-03-29T04:32:30;1.80;;;0.87;;
49544;SDS011;74870;42.636;23.302;2024-03-29T04:34:56;2.63;;;0.90;;
49544;SDS011;74870;42.636;23.302;2024-03-29T04:37:21;1.37;;;0.97;;
49544;SDS011;74870;42.636;23.302;2024-03-29T04:39:47;0.90;;;0.90;;
49544;SDS011;74870;42.636;23.302;2024-03-29T04:42:12;1.93;;;1.30;;
49544;SDS011;74870;42.636;23.302;2024-03-29T04:44:39;1.10;;;1.10;;
49544;SDS011;74870;42.636;23.302;2024-03-29T04:47:05;4.47;;;1.30;;
49544;SDS011;74870;42.636;23.302;2024-03-29T04:49:31;1.77;;;1.07;;
49544;SDS011;74870;42.636;23.302;2024-03-29T04:52:01;3.23;;;1.60;;
49544;SDS011;74870;42.636;23.302;2024-03-29T04:54:30;5.33;;;2.27;;
49544;SDS011;74870;42.636;23.302;2024-03-29T04:56:56;7.20;;;3.33;;
49544;SDS011;74870;42.636;23.302;2024-03-29T04:59:21;6.60;;;2.83;;
49544;SDS011;74870;42.636;23.302;2024-03-29T05:01:48;10.73;;;3.27;;
49544;SDS011;74870;42.636;23.302;2024-03-29T05:04:18;4.47;;;2.30;;
49544;SDS011;74870;42.636;23.302;2024-03-29T05:09:18;2.13;;;1.80;;
49544;SDS011;74870;42.636;23.302;2024-03-29T05:11:44;4.07;;;2.20;;
49544;SDS011;74870;42.636;23.302;2024-03-29T05:14:11;4.47;;;2.27;;
49544;SDS011;74870;42.636;23.302;2024-03-29T05:16:38;3.57;;;1.80;;
49544;SDS011;74870;42.636;23.302;2024-03-29T05:19:04;1.67;;;1.40;;
49544;SDS011;74870;42.636;23.302;2024-03-29T05:21:29;2.80;;;1.10;;
49544;SDS011;74870;42.636;23.302;2024-03-29T05:23:54;1.03;;;0.80;;
49544;SDS011;74870;42.636;23.302;2024-03-29T05:26:20;0.87;;;0.87;;
49544;SDS011;74870;42.636;23.302;2024-03-29T05:28:45;2.97;;;1.00;;
49544;SDS011;74870;42.636;23.302;2024-03-29T05:31:11;1.17;;;1.00;;
49544;SDS011;74870;42.636;23.302;2024-03-29T05:33:36;1.00;;;0.90;;
49544;SDS011;74870;42.636;23.302;2024-03-29T05:36:02;0.97;;;0.90;;
49544;SDS011;74870;42.636;23.302;2024-03-29T05:38:29;1.07;;;0.90;;
49544;SDS011;74870;42.636;23.302;2024-03-29T05:40:55;2.07;;;0.90;;
49544;SDS011;74870;42.636;23.302;2024-03-29T05:43:20;1.43;;;1.00;;
49544;SDS011;74870;42.636;23.302;2024-03-29T05:45:45;2.37;;;1.10;;
49544;SDS011;74870;42.636;23.302;2024-03-29T05:48:10;1.17;;;0.87;;
49544;SDS011;74870;42.636;23.302;2024-03-29T05:50:36;1.73;;;0.97;;
49544;SDS011;74870;42.636;23.302;2024-03-29T05:53:01;2.07;;;1.20;;
49544;SDS011;74870;42.636;23.302;2024-03-29T05:55:26;2.43;;;0.90;;
49544;SDS011;74870;42.636;23.302;2024-03-29T05:57:52;2.00;;;1.10;;
49544;SDS011;74870;42.636;23.302;2024-03-29T06:00:17;2.43;;;1.17;;
49544;SDS011;74870;42.636;23.302;2024-03-29T06:02:43;2.27;;;1.30;;
49544;SDS011;74870;42.636;23.302;2024-03-29T06:05:10;2.97;;;1.50;;
49544;SDS011;74870;42.636;23.302;2024-03-29T06:07:35;2.00;;;1.80;;
49544;SDS011;74870;42.636;23.302;2024-03-29T06:10:01;2.67;;;2.10;;
49544;SDS011;74870;42.636;23.302;2024-03-29T06:12:29;2.40;;;1.93;;
49544;SDS011;74870;42.636;23.302;2024-03-29T06:14:54;4.20;;;1.47;;
49544;SDS011;74870;42.636;23.302;2024-03-29T06:17:38;2.70;;;1.43;;
49544;SDS011;74870;42.636;23.302;2024-03-29T06:20:04;4.13;;;1.30;;
49544;SDS011;74870;42.636;23.302;2024-03-29T06:22:29;3.57;;;1.20;;
49544;SDS011;74870;42.636;23.302;2024-03-29T06:24:55;2.03;;;1.00;;
49544;SDS011;74870;42.636;23.302;2024-03-29T06:27:24;1.17;;;0.90;;
49544;SDS011;74870;42.636;23.302;2024-03-29T06:29:49;1.47;;;0.80;;
49544;SDS011;74870;42.636;23.302;2024-03-29T06:32:15;2.90;;;0.80;;
49544;SDS011;74870;42.636;23.302;2024-03-29T06:34:41;2.57;;;1.00;;
49544;SDS011;74870;42.636;23.302;2024-03-29T06:37:06;1.40;;;0.70;;
49544;SDS011;74870;42.636;23.302;2024-03-29T06:39:32;1.17;;;0.80;;
49544;SDS011;74870;42.636;23.302;2024-03-29T06:41:58;2.30;;;0.80;;
49544;SDS011;74870;42.636;23.302;2024-03-29T06:44:23;1.87;;;1.00;;
49544;SDS011;74870;42.636;23.302;2024-03-29T06:46:50;1.33;;;0.77;;
49544;SDS011;74870;42.636;23.302;2024-03-29T06:49:15;1.00;;;0.90;;
49544;SDS011;74870;42.636;23.302;2024-03-29T06:51:41;1.67;;;1.07;;
49544;SDS011;74870;42.636;23.302;2024-03-29T06:54:07;2.90;;;0.90;;
49544;SDS011;74870;42.636;23.302;2024-03-29T06:56:32;1.27;;;0.90;;
49544;SDS011;74870;42.636;23.302;2024-03-29T06:58:58;1.53;;;0.70;;
49544;SDS011;74870;42.636;23.302;2024-03-29T07:01:23;2.23;;;0.70;;
49544;SDS011;74870;42.636;23.302;2024-03-29T07:03:49;1.47;;;1.07;;
49544;SDS011;74870;42.636;23.302;2024-03-29T07:06:14;2.67;;;0.90;;
49544;SDS011;74870;42.636;23.302;2024-03-29T07:08:40;1.20;;;0.80;;
49544;SDS011;74870;42.636;23.302;2024-03-29T07:11:05;6.97;;;1.40;;
49544;SDS011;74870;42.636;23.302;2024-03-29T07:13:32;1.30;;;0.80;;
49544;SDS011;74870;42.636;23.302;2024-03-29T07:16:00;0.87;;;0.80;;
49544;SDS011;74870;42.636;23.302;2024-03-29T07:18:26;1.60;;;0.87;;
49544;SDS011;74870;42.636;23.302;2024-03-29T07:20:51;3.80;;;1.00;;
49544;SDS011;74870;42.636;23.302;2024-03-29T07:23:17;2.90;;;1.00;;
49544;SDS011;74870;42.636;23.302;2024-03-29T07:25:44;1.97;;;0.90;;
49544;SDS011;74870;42.636;23.302;2024-03-29T07:28:10;1.17;;;0.80;;
49544;SDS011;74870;42.636;23.302;2024-03-29T07:30:39;2.27;;;0.93;;
49544;SDS011;74870;42.636;23.302;2024-03-29T07:33:05;2.83;;;1.00;;
49544;SDS011;74870;42.636;23.302;2024-03-29T07:35:31;1.67;;;0.90;;
49544;SDS011;74870;42.636;23.302;2024-03-29T07:37:56;2.23;;;1.00;;
49544;SDS011;74870;42.636;23.302;2024-03-29T07:40:22;2.00;;;1.30;;
49544;SDS011;74870;42.636;23.302;2024-03-29T07:42:47;3.27;;;1.50;;
49544;SDS011;74870;42.636;23.302;2024-03-29T07:45:12;2.23;;;1.40;;
49544;SDS011;74870;42.636;23.302;2024-03-29T07:47:38;1.73;;;1.10;;
49544;SDS011;74870;42.636;23.302;2024-03-29T07:50:04;2.03;;;1.00;;
49544;SDS011;74870;42.636;23.302;2024-03-29T07:52:31;1.27;;;1.00;;
49544;SDS011;74870;42.636;23.302;2024-03-29T07:54:57;1.00;;;0.90;;
49544;SDS011;74870;42.636;23.302;2024-03-29T07:57:22;1.83;;;0.90;;
49544;SDS011;74870;42.636;23.302;2024-03-29T07:59:50;2.70;;;0.87;;
49544;SDS011;74870;42.636;23.302;2024-03-29T08:02:15;2.07;;;0.90;;
49544;SDS011;74870;42.636;23.302;2024-03-29T08:04:41;2.03;;;1.00;;
49544;SDS011;74870;42.636;23.302;2024-03-29T08:07:08;2.00;;;0.90;;
49544;SDS011;74870;42.636;23.302;2024-03-29T08:09:33;1.97;;;1.00;;
49544;SDS011;74870;42.636;23.302;2024-03-29T08:11:59;3.47;;;1.20;;
49544;SDS011;74870;42.636;23.302;2024-03-29T08:14:25;2.00;;;0.87;;
49544;SDS011;74870;42.636;23.302;2024-03-29T08:16:52;1.47;;;0.90;;
49544;SDS011;74870;42.636;23.302;2024-03-29T08:19:19;2.50;;;0.90;;
49544;SDS011;74870;42.636;23.302;2024-03-29T08:21:45;1.00;;;0.73;;
49544;SDS011;74870;42.636;23.302;2024-03-29T08:24:10;1.60;;;0.80;;
49544;SDS011;74870;42.636;23.302;2024-03-29T08:26:36;2.73;;;1.00;;
49544;SDS011;74870;42.636;23.302;2024-03-29T08:29:02;1.57;;;0.83;;
49544;SDS011;74870;42.636;23.302;2024-03-29T08:31:27;2.63;;;0.73;;
49544;SDS011;74870;42.636;23.302;2024-03-29T08:33:53;1.23;;;0.90;;
49544;SDS011;74870;42.636;23.302;2024-03-29T08:36:19;5.30;;;1.10;;
49544;SDS011;74870;42.636;23.302;2024-03-29T08:38:44;4.43;;;1.30;;
49544;SDS011;74870;42.636;23.302;2024-03-29T08:41:11;2.47;;;1.20;;
49544;SDS011;74870;42.636;23.302;2024-03-29T08:43:37;1.03;;;0.90;;
49544;SDS011;74870;42.636;23.302;2024-03-29T08:46:02;0.80;;;0.63;;
49544;SDS011;74870;42.636;23.302;2024-03-29T08:48:28;2.00;;;1.00;;
49544;SDS011;74870;42.636;23.302;2024-03-29T08:50:54;1.17;;;0.67;;
49544;SDS011;74870;42.636;23.302;2024-03-29T08:53:20;1.83;;;0.70;;
49544;SDS011;74870;42.636;23.302;2024-03-29T08:55:47;1.57;;;0.83;;
49544;SDS011;74870;42.636;23.302;2024-03-29T08:58:13;1.53;;;0.83;;
49544;SDS011;74870;42.636;23.302;2024-03-29T09:00:39;0.60;;;0.50;;
49544;SDS011;74870;42.636;23.302;2024-03-29T09:03:04;1.40;;;0.70;;
49544;SDS011;74870;42.636;23.302;2024-03-29T09:05:30;4.37;;;1.03;;
49544;SDS011;74870;42.636;23.302;2024-03-29T09:07:56;1.13;;;0.90;;
49544;SDS011;74870;42.636;23.302;2024-03-29T09:10:22;1.33;;;0.60;;
49544;SDS011;74870;42.636;23.302;2024-03-29T09:12:51;2.00;;;1.00;;
49544;SDS011;74870;42.636;23.302;2024-03-29T09:15:17;3.77;;;1.10;;
49544;SDS011;74870;42.636;23.302;2024-03-29T09:17:43;1.17;;;0.80;;
49544;SDS011;74870;42.636;23.302;2024-03-29T09:20:09;3.77;;;1.03;;
49544;SDS011;74870;42.636;23.302;2024-03-29T09:22:35;2.27;;;1.00;;
49544;SDS011;74870;42.636;23.302;2024-03-29T09:25:00;5.13;;;1.00;;
49544;SDS011;74870;42.636;23.302;2024-03-29T09:27:26;3.67;;;1.17;;
49544;SDS011;74870;42.636;23.302;2024-03-29T09:29:54;3.60;;;1.00;;
49544;SDS011;74870;42.636;23.302;2024-03-29T09:32:20;3.93;;;1.10;;
49544;SDS011;74870;42.636;23.302;2024-03-29T09:34:47;2.53;;;0.90;;
49544;SDS011;74870;42.636;23.302;2024-03-29T09:37:12;3.33;;;0.97;;
49544;SDS011;74870;42.636;23.302;2024-03-29T09:39:38;1.70;;;1.00;;
49544;SDS011;74870;42.636;23.302;2024-03-29T09:42:03;2.57;;;1.10;;
49544;SDS011;74870;42.636;23.302;2024-03-29T09:44:32;3.23;;;1.00;;
49544;SDS011;74870;42.636;23.302;2024-03-29T09:47:04;2.90;;;0.80;;
49544;SDS011;74870;42.636;23.302;2024-03-29T09:49:31;2.13;;;1.07;;
49544;SDS011;74870;42.636;23.302;2024-03-29T09:51:57;1.73;;;1.10;;
49544;SDS011;74870;42.636;23.302;2024-03-29T09:54:24;1.23;;;0.80;;
49544;SDS011;74870;42.636;23.302;2024-03-29T09:56:53;1.80;;;1.10;;
49544;SDS011;74870;42.636;23.302;2024-03-29T09:59:23;2.73;;;1.00;;
49544;SDS011;74870;42.636;23.302;2024-03-29T10:01:50;2.63;;;1.20;;
49544;SDS011;74870;42.636;23.302;2024-03-29T10:04:18;2.00;;;1.20;;
49544;SDS011;74870;42.636;23.302;2024-03-29T10:06:46;1.40;;;0.90;;
49544;SDS011;74870;42.636;23.302;2024-03-29T10:09:17;2.50;;;1.00;;
49544;SDS011;74870;42.636;23.302;2024-03-29T10:11:43;0.90;;;0.80;;
49544;SDS011;74870;42.636;23.302;2024-03-29T10:14:09;2.73;;;1.10;;
49544;SDS011;74870;42.636;23.302;2024-03-29T10:16:35;5.37;;;1.10;;
49544;SDS011;74870;42.636;23.302;2024-03-29T10:19:00;2.33;;;1.00;;
49544;SDS011;74870;42.636;23.302;2024-03-29T10:21:26;3.00;;;1.00;;
49544;SDS011;74870;42.636;23.302;2024-03-29T10:23:51;5.07;;;1.17;;
49544;SDS011;74870;42.636;23.302;2024-03-29T10:26:21;4.47;;;1.30;;
49544;SDS011;74870;42.636;23.302;2024-03-29T10:28:54;2.83;;;1.37;;
49544;SDS011;74870;42.636;23.302;2024-03-29T10:31:19;2.03;;;1.07;;
49544;SDS011;74870;42.636;23.302;2024-03-29T10:33:44;3.77;;;1.00;;
49544;SDS011;74870;42.636;23.302;2024-03-29T10:36:10;2.53;;;1.20;;
49544;SDS011;74870;42.636;23.302;2024-03-29T10:38:37;3.53;;;1.20;;
49544;SDS011;74870;42.636;23.302;2024-03-29T10:41:04;3.53;;;1.43;;
49544;SDS011;74870;42.636;23.302;2024-03-29T10:43:31;2.30;;;1.20;;
49544;SDS011;74870;42.636;23.302;2024-03-29T10:46:00;3.50;;;1.20;;
49544;SDS011;74870;42.636;23.302;2024-03-29T10:48:26;2.17;;;1.10;;
49544;SDS011;74870;42.636;23.302;2024-03-29T10:50:53;2.27;;;1.30;;
49544;SDS011;74870;42.636;23.302;2024-03-29T10:53:23;1.80;;;1.07;;
49544;SDS011;74870;42.636;23.302;2024-03-29T10:56:01;1.80;;;1.07;;
49544;SDS011;74870;42.636;23.302;2024-03-29T10:58:33;2.17;;;1.10;;
49544;SDS011;74870;42.636;23.302;2024-03-29T11:01:10;4.30;;;1.37;;
49544;SDS011;74870;42.636;23.302;2024-03-29T11:03:38;3.30;;;1.10;;
49544;SDS011;74870;42.636;23.302;2024-03-29T11:06:09;2.70;;;0.97;;
49544;SDS011;74870;42.636;23.302;2024-03-29T11:08:38;2.97;;;1.10;;
49544;SDS011;74870;42.636;23.302;2024-03-29T11:11:07;4.83;;;1.30;;
49544;SDS011;74870;42.636;23.302;2024-03-29T11:16:27;2.60;;;1.10;;
49544;SDS011;74870;42.636;23.302;2024-03-29T11:18:53;2.57;;;1.37;;
49544;SDS011;74870;42.636;23.302;2024-03-29T11:21:19;2.33;;;1.27;;
49544;SDS011;74870;42.636;23.302;2024-03-29T11:23:49;3.23;;;1.30;;
49544;SDS011;74870;42.636;23.302;2024-03-29T11:26:18;3.97;;;1.20;;
49544;SDS011;74870;42.636;23.302;2024-03-29T11:28:48;4.10;;;1.33;;
49544;SDS011;74870;42.636;23.302;2024-03-29T11:31:21;6.60;;;1.70;;
49544;SDS011;74870;42.636;23.302;2024-03-29T11:33:48;4.50;;;1.40;;
49544;SDS011;74870;42.636;23.302;2024-03-29T11:36:20;1.37;;;1.00;;
49544;SDS011;74870;42.636;23.302;2024-03-29T11:38:51;4.30;;;1.10;;
49544;SDS011;74870;42.636;23.302;2024-03-29T11:41:21;2.97;;;1.30;;
49544;SDS011;74870;42.636;23.302;2024-03-29T11:43:52;3.90;;;1.20;;
49544;SDS011;74870;42.636;23.302;2024-03-29T11:46:18;2.83;;;1.10;;
49544;SDS011;74870;42.636;23.302;2024-03-29T11:48:45;3.40;;;1.30;;
49544;SDS011;74870;42.636;23.302;2024-03-29T11:51:12;4.90;;;1.47;;
49544;SDS011;74870;42.636;23.302;2024-03-29T11:53:40;3.03;;;1.23;;
49544;SDS011;74870;42.636;23.302;2024-03-29T11:56:05;3.33;;;1.30;;
49544;SDS011;74870;42.636;23.302;2024-03-29T11:58:32;2.90;;;1.13;;
49544;SDS011;74870;42.636;23.302;2024-03-29T12:00:58;3.97;;;1.47;;
49544;SDS011;74870;42.636;23.302;2024-03-29T12:03:25;3.63;;;1.20;;
49544;SDS011;74870;42.636;23.302;2024-03-29T12:05:52;2.93;;;1.20;;
49544;SDS011;74870;42.636;23.302;2024-03-29T12:08:19;2.00;;;1.27;;
49544;SDS011;74870;42.636;23.302;2024-03-29T12:10:45;2.10;;;1.13;;
49544;SDS011;74870;42.636;23.302;2024-03-29T12:13:11;2.43;;;1.20;;
49544;SDS011;74870;42.636;23.302;2024-03-29T12:15:36;4.73;;;1.40;;
49544;SDS011;74870;42.636;23.302;2024-03-29T12:18:03;1.93;;;1.30;;
49544;SDS011;74870;42.636;23.302;2024-03-29T12:20:31;3.07;;;1.17;;
49544;SDS011;74870;42.636;23.302;2024-03-29T12:23:04;2.60;;;1.10;;
49544;SDS011;74870;42.636;23.302;2024-03-29T12:25:31;3.10;;;1.50;;
49544;SDS011;74870;42.636;23.302;2024-03-29T12:27:58;3.07;;;1.37;;
49544;SDS011;74870;42.636;23.302;2024-03-29T12:30:24;4.07;;;1.50;;
49544;SDS011;74870;42.636;23.302;2024-03-29T12:35:43;2.30;;;1.07;;
49544;SDS011;74870;42.636;23.302;2024-03-29T12:38:12;4.87;;;1.27;;
49544;SDS011;74870;42.636;23.302;2024-03-29T12:40:38;3.53;;;1.47;;
49544;SDS011;74870;42.636;23.302;2024-03-29T12:43:05;3.47;;;1.30;;
49544;SDS011;74870;42.636;23.302;2024-03-29T12:45:33;2.97;;;1.20;;
49544;SDS011;74870;42.636;23.302;2024-03-29T12:47:59;1.80;;;1.17;;
49544;SDS011;74870;42.636;23.302;2024-03-29T12:50:25;1.80;;;1.20;;
49544;SDS011;74870;42.636;23.302;2024-03-29T12:52:55;2.17;;;1.43;;
49544;SDS011;74870;42.636;23.302;2024-03-29T12:55:25;3.43;;;1.20;;
49544;SDS011;74870;42.636;23.302;2024-03-29T12:57:56;2.30;;;1.20;;
49544;SDS011;74870;42.636;23.302;2024-03-29T13:00:25;3.77;;;1.20;;
49544;SDS011;74870;42.636;23.302;2024-03-29T13:02:50;2.83;;;1.13;;
49544;SDS011;74870;42.636;23.302;2024-03-29T13:05:15;4.20;;;1.47;;
49544;SDS011;74870;42.636;23.302;2024-03-29T13:07:41;3.50;;;1.20;;
49544;SDS011;74870;42.636;23.302;2024-03-29T13:10:07;1.70;;;1.00;;
49544;SDS011;74870;42.636;23.302;2024-03-29T13:12:44;3.13;;;1.03;;
49544;SDS011;74870;42.636;23.302;2024-03-29T13:15:18;5.40;;;1.40;;
49544;SDS011;74870;42.636;23.302;2024-03-29T13:17:46;2.53;;;1.20;;
49544;SDS011;74870;42.636;23.302;2024-03-29T13:20:13;3.20;;;1.80;;
49544;SDS011;74870;42.636;23.302;2024-03-29T13:22:43;4.07;;;1.30;;
49544;SDS011;74870;42.636;23.302;2024-03-29T13:25:11;1.23;;;1.10;;
49544;SDS011;74870;42.636;23.302;2024-03-29T13:27:37;1.13;;;1.00;;
49544;SDS011;74870;42.636;23.302;2024-03-29T13:30:05;1.67;;;1.03;;
49544;SDS011;74870;42.636;23.302;2024-03-29T13:32:31;3.77;;;1.20;;
49544;SDS011;74870;42.636;23.302;2024-03-29T13:35:00;2.37;;;1.00;;
49544;SDS011;74870;42.636;23.302;2024-03-29T13:37:26;2.70;;;1.10;;
49544;SDS011;74870;42.636;23.302;2024-03-29T13:39:55;2.67;;;1.10;;
49544;SDS011;74870;42.636;23.302;2024-03-29T13:42:21;1.87;;;1.10;;
49544;SDS011;74870;42.636;23.302;2024-03-29T13:44:50;3.50;;;1.20;;
49544;SDS011;74870;42.636;23.302;2024-03-29T13:47:18;3.30;;;1.33;;
49544;SDS011;74870;42.636;23.302;2024-03-29T13:49:44;3.37;;;1.20;;
49544;SDS011;74870;42.636;23.302;2024-03-29T13:52:10;3.73;;;1.10;;
49544;SDS011;74870;42.636;23.302;2024-03-29T13:54:36;2.30;;;1.23;;
49544;SDS011;74870;42.636;23.302;2024-03-29T13:57:02;3.73;;;1.10;;
49544;SDS011;74870;42.636;23.302;2024-03-29T13:59:29;4.93;;;1.30;;
49544;SDS011;74870;42.636;23.302;2024-03-29T14:01:55;2.27;;;1.00;;
49544;SDS011;74870;42.636;23.302;2024-03-29T14:04:21;2.50;;;1.00;;
49544;SDS011;74870;42.636;23.302;2024-03-29T14:06:47;3.93;;;1.23;;
49544;SDS011;74870;42.636;23.302;2024-03-29T14:09:12;2.00;;;1.00;;
49544;SDS011;74870;42.636;23.302;2024-03-29T14:11:38;3.27;;;1.10;;
49544;SDS011;74870;42.636;23.302;2024-03-29T14:14:03;1.30;;;1.03;;
49544;SDS011;74870;42.636;23.302;2024-03-29T14:16:32;2.47;;;0.90;;
49544;SDS011;74870;42.636;23.302;2024-03-29T14:18:57;1.83;;;1.13;;
49544;SDS011;74870;42.636;23.302;2024-03-29T14:21:22;4.20;;;0.90;;
49544;SDS011;74870;42.636;23.302;2024-03-29T14:23:48;3.90;;;1.10;;
49544;SDS011;74870;42.636;23.302;2024-03-29T14:26:14;2.23;;;1.10;;
49544;SDS011;74870;42.636;23.302;2024-03-29T14:28:39;2.73;;;1.10;;
49544;SDS011;74870;42.636;23.302;2024-03-29T14:31:04;2.13;;;1.00;;
49544;SDS011;74870;42.636;23.302;2024-03-29T14:33:30;3.30;;;1.20;;
49544;SDS011;74870;42.636;23.302;2024-03-29T14:35:55;4.67;;;1.57;;
49544;SDS011;74870;42.636;23.302;2024-03-29T14:38:23;2.07;;;1.20;;
49544;SDS011;74870;42.636;23.302;2024-03-29T14:40:48;2.97;;;1.00;;